Time;durP1;ratioP1;P1;durP2;ratioP2;P2;SDS_P1;SDS_P2;PMS_P1;PMS_P2;Temp;Humidity;BMP_temperature;BMP_pressure;BME280_temperature;BME280_humidity;BME280_pressure;Samples;Min_cycle;Max_cycle;Signal;HPM_P1;HPM_P2
2022/12/16 00:00:26;;;;;;;21.77;13.88;;;16.00;69.30;;;18.03;36.51;98002.22;5042586;28;20087;-72
2022/12/16 00:03:12;;;;;;;20.73;13.55;;;16.10;69.30;;;18.07;36.52;98005.91;5060730;28;20427;-73
2022/12/16 00:05:38;;;;;;;19.17;13.52;;;16.00;69.30;;;18.03;37.00;98002.22;5023229;28;20106;-72
2022/12/16 00:08:04;;;;;;;20.35;12.73;;;16.00;69.70;;;18.11;36.86;97993.09;5041930;28;20036;-72
2022/12/16 00:10:51;;;;;;;21.70;13.90;;;16.10;70.00;;;18.13;36.36;98004.53;5056212;28;20048;-72
2022/12/16 00:13:17;;;;;;;25.52;13.57;;;16.10;69.70;;;18.12;36.36;97997.44;5067486;28;20106;-72
2022/12/16 00:15:45;;;;;;;21.20;13.85;;;16.10;69.70;;;18.14;36.46;98001.44;5040323;28;20040;-71
2022/12/16 00:18:12;;;;;;;22.10;14.25;;;16.10;69.60;;;18.15;36.46;98014.00;5055644;28;20040;-73
2022/12/16 00:20:51;;;;;;;22.73;13.55;;;16.10;69.40;;;18.11;36.59;98009.56;5056539;28;20503;-71
2022/12/16 00:23:17;;;;;;;19.92;13.00;;;16.10;69.70;;;18.14;36.74;98019.84;5056132;28;20048;-71
2022/12/16 00:25:44;;;;;;;21.52;13.82;;;16.10;69.80;;;18.13;36.56;98021.78;5039209;28;20040;-71
2022/12/16 00:28:10;;;;;;;18.52;12.48;;;16.10;69.90;;;18.13;36.42;98007.28;5058203;28;20040;-72
2022/12/16 00:30:36;;;;;;;21.30;13.90;;;16.10;69.60;;;18.12;36.64;97986.47;5027660;28;20784;-72
2022/12/16 00:33:03;;;;;;;20.83;13.68;;;16.10;69.50;;;18.15;36.26;97989.31;5038543;28;20040;-72
2022/12/16 00:35:29;;;;;;;18.45;12.07;;;16.10;69.30;;;18.16;36.29;97984.63;5039563;28;20040;-72
2022/12/16 00:37:56;;;;;;;18.98;12.38;;;16.10;69.40;;;18.14;36.56;97978.66;5057370;28;20085;-72
2022/12/16 00:40:22;;;;;;;20.98;13.02;;;16.10;69.70;;;18.12;36.65;97991.97;5022368;28;20063;-72
2022/12/16 00:42:48;;;;;;;18.23;12.35;;;16.10;70.00;;;18.16;36.66;97990.91;5043945;28;20044;-72
2022/12/16 00:45:14;;;;;;;21.13;12.82;;;16.10;69.80;;;18.17;36.46;97981.53;5049355;28;20032;-72
2022/12/16 00:47:40;;;;;;;21.50;12.65;;;16.10;69.60;;;18.13;36.56;97972.38;5055756;28;20492;-72
2022/12/16 00:50:07;;;;;;;17.73;12.30;;;16.10;69.70;;;18.16;36.55;97971.69;5067430;28;20503;-72
2022/12/16 00:52:33;;;;;;;15.70;11.70;;;16.10;69.70;;;18.17;36.56;97986.25;5038824;28;20048;-71
2022/12/16 00:54:59;;;;;;;19.33;12.20;;;16.10;69.70;;;18.17;36.65;97991.72;5035897;28;20037;-73
2022/12/16 00:57:26;;;;;;;17.25;12.40;;;16.10;70.00;;;18.18;36.80;97976.84;5069470;28;20037;-72
2022/12/16 00:59:55;;;;;;;20.33;12.27;;;16.10;69.90;;;18.20;36.50;97986.34;5019376;28;20040;-72
2022/12/16 01:02:20;;;;;;;20.35;12.30;;;16.30;69.70;;;18.22;36.57;97983.25;5047579;28;20036;-72
2022/12/16 01:04:47;;;;;;;16.88;12.07;;;16.20;69.40;;;18.17;36.75;97980.75;5031208;28;20053;-72
2022/12/16 01:07:13;;;;;;;17.75;12.02;;;16.10;69.40;;;18.17;36.42;97981.53;5037958;28;20349;-73
2022/12/16 01:09:39;;;;;;;20.65;13.00;;;16.20;69.40;;;18.17;36.74;97980.75;5041599;28;20051;-72
2022/12/16 01:12:05;;;;;;;18.35;11.80;;;16.10;69.80;;;18.15;36.95;97977.53;5052674;28;20032;-72
2022/12/16 01:14:31;;;;;;;17.10;12.13;;;16.20;69.90;;;18.20;36.66;97958.09;5058852;28;20051;-72
2022/12/16 01:16:57;;;;;;;18.40;12.48;;;16.20;69.70;;;18.19;36.78;97965.53;5022329;28;20177;-73
2022/12/16 01:19:24;;;;;;;18.92;11.30;;;16.20;69.70;;;18.22;36.36;97956.59;5039596;28;20047;-73
2022/12/16 01:21:49;;;;;;;17.67;11.98;;;16.10;69.70;;;18.18;36.55;97955.69;5064756;28;20127;-72
2022/12/16 01:24:16;;;;;;;19.60;12.40;;;16.20;69.50;;;18.16;36.46;97948.94;5040411;28;20097;-72
2022/12/16 01:26:41;;;;;;;20.83;12.80;;;16.20;69.60;;;18.17;36.60;97947.81;5041401;28;20406;-72
2022/12/16 01:29:08;;;;;;;16.45;11.45;;;16.10;69.90;;;18.15;36.54;97937.16;5056099;28;20047;-72
2022/12/16 01:31:34;;;;;;;17.83;11.90;;;16.10;70.10;;;18.20;36.54;97925.16;5038294;28;20391;-72
2022/12/16 01:34:00;;;;;;;17.70;12.10;;;16.20;69.80;;;18.19;36.48;97927.09;5040165;28;20041;-73
2022/12/16 01:36:26;;;;;;;22.05;13.65;;;16.20;69.40;;;18.19;36.40;97923.53;5039879;28;20127;-72
2022/12/16 01:38:54;;;;;;;18.40;12.43;;;16.20;69.20;;;18.19;36.51;97915.31;5021476;28;20048;-72
2022/12/16 01:41:22;;;;;;;17.63;12.45;;;16.20;69.30;;;18.18;36.54;97910.97;5029603;28;20041;-72
2022/12/16 01:43:48;;;;;;;19.77;13.02;;;16.20;69.60;;;18.16;36.65;97918.75;5039247;28;20044;-72
2022/12/16 01:46:14;;;;;;;19.15;12.25;;;16.10;69.80;;;18.19;36.89;97912.56;5041105;28;20036;-72
2022/12/16 01:49:01;;;;;;;19.60;12.25;;;16.20;70.20;;;18.18;36.79;97905.47;5070683;28;20403;-72
2022/12/16 01:51:33;;;;;;;16.33;11.35;;;16.20;69.70;;;18.20;36.37;97914.19;5041306;28;20037;-72
2022/12/16 01:54:29;;;;;;;20.80;12.73;;;16.20;69.70;;;18.17;36.40;97906.66;5054636;28;20658;-72
2022/12/16 01:56:57;;;;;;;16.45;11.55;;;16.20;69.60;;;18.20;36.60;97897.72;5043463;28;20117;-72
2022/12/16 01:59:24;;;;;;;19.48;11.63;;;16.20;69.50;;;18.15;36.76;97898.75;5053828;28;20537;-72
2022/12/16 02:01:50;;;;;;;20.20;13.07;;;16.20;69.80;;;18.17;36.89;97892.91;5020090;28;20048;-72
2022/12/16 02:04:16;;;;;;;16.95;12.05;;;16.30;69.90;;;18.19;36.67;97885.13;5040315;28;20076;-72
2022/12/16 02:06:42;;;;;;;18.58;13.40;;;16.20;69.60;;;18.19;36.60;97872.22;5024640;28;20050;-72
2022/12/16 02:09:10;;;;;;;20.73;12.27;;;16.20;69.50;;;18.21;36.34;97874.59;5060174;28;20037;-72
2022/12/16 02:11:58;;;;;;;19.38;13.38;;;16.20;69.40;;;18.18;36.38;97878.03;5027467;28;20070;-72
2022/12/16 02:15:05;;;;;;;19.00;12.48;;;16.20;69.30;;;18.18;36.67;97873.34;5075594;28;20381;-73
2022/12/16 02:17:53;;;;;;;19.85;12.15;;;16.20;69.60;;;18.16;36.87;97869.34;5060362;28;20081;-72
2022/12/16 02:20:35;;;;;;;15.60;11.73;;;16.20;69.90;;;18.15;36.55;97873.25;5068858;28;20473;-72
2022/12/16 02:23:28;;;;;;;19.73;12.48;;;16.30;69.60;;;18.16;36.60;97883.88;5044970;28;20056;-72
2022/12/16 02:26:32;;;;;;;19.27;12.38;;;16.30;69.40;;;18.19;36.47;97871.41;5048690;28;20040;-72
2022/12/16 02:29:13;;;;;;;17.48;11.90;;;16.30;69.50;;;18.14;36.80;97871.63;5046114;28;20051;-72
2022/12/16 02:32:09;;;;;;;19.50;12.88;;;16.20;69.60;;;18.12;36.83;97869.25;5054532;28;20464;-72
2022/12/16 02:35:26;;;;;;;17.27;12.48;;;16.20;69.70;;;18.08;36.97;97864.78;5020466;28;20113;-72
2022/12/16 02:38:25;;;;;;;17.30;11.20;;;16.20;70.00;;;18.08;36.71;97853.81;5033660;28;20053;-72
2022/12/16 02:41:01;;;;;;;18.13;12.00;;;16.20;69.70;;;18.03;36.91;97848.56;5030564;28;20106;-72
2022/12/16 02:44:03;;;;;;;18.25;12.07;;;16.20;69.50;;;18.07;36.63;97850.28;5024812;28;20047;-72
2022/12/16 02:46:33;;;;;;;17.65;12.00;;;16.20;69.50;;;18.14;36.66;97838.69;5054321;28;20053;-72
2022/12/16 02:49:29;;;;;;;15.98;11.68;;;16.10;70.50;;;18.09;36.89;97831.53;5021707;28;20036;-72
2022/12/16 02:51:56;;;;;;;20.00;12.77;;;16.20;70.00;;;18.10;36.64;97832.31;5070800;28;20040;-72
2022/12/16 02:54:22;;;;;;;18.60;12.38;;;16.20;69.70;;;18.08;36.87;97831.88;5040271;28;20036;-72
2022/12/16 02:56:57;;;;;;;17.33;11.88;;;16.20;69.60;;;18.09;36.73;97826.03;5038377;28;20398;-72
2022/12/16 02:59:47;;;;;;;19.92;13.10;;;16.20;69.40;;;18.08;36.78;97818.94;5041588;28;20040;-72
2022/12/16 03:02:25;;;;;;;20.10;12.65;;;16.20;69.50;;;18.11;36.81;97809.22;5070837;28;20570;-73
2022/12/16 03:04:58;;;;;;;17.38;11.88;;;16.20;69.70;;;18.08;36.93;97810.69;5041696;28;20044;-72
2022/12/16 03:07:25;;;;;;;15.95;11.27;;;16.20;69.90;;;18.09;36.93;97806.00;5043805;28;20068;-72
2022/12/16 03:09:51;;;;;;;18.65;12.32;;;16.20;69.80;;;18.07;36.78;97811.06;5028211;28;20040;-72
2022/12/16 03:12:18;;;;;;;14.48;10.68;;;16.20;69.50;;;18.06;36.46;97815.72;5025831;28;20037;-72
2022/12/16 03:14:46;;;;;;;17.02;12.38;;;16.20;69.30;;;18.00;36.96;97806.94;5026488;28;20032;-72
2022/12/16 03:17:12;;;;;;;18.05;11.50;;;16.20;69.40;;;18.05;36.84;97816.09;5022249;28;20044;-72
2022/12/16 03:19:41;;;;;;;16.13;11.68;;;16.20;69.20;;;18.07;36.78;97811.88;5021345;28;20396;-72
2022/12/16 03:22:11;;;;;;;21.58;13.48;;;16.20;69.60;;;18.08;36.72;97812.66;5023721;28;20075;-72
2022/12/16 03:24:38;;;;;;;17.30;11.30;;;16.20;69.80;;;18.05;36.80;97805.13;5026144;28;20051;-72
2022/12/16 03:27:28;;;;;;;16.05;11.48;;;16.20;69.70;;;18.05;36.73;97810.59;5041504;28;20093;-72
2022/12/16 03:30:03;;;;;;;18.67;10.90;;;16.30;69.60;;;18.00;36.89;97804.22;5058664;28;20041;-73
2022/12/16 03:32:36;;;;;;;15.05;11.90;;;16.20;69.20;;;18.03;36.69;97799.19;5035562;28;20052;-73
2022/12/16 03:35:19;;;;;;;16.88;11.30;;;16.10;69.30;;;18.03;36.68;97783.50;5039315;28;20039;-72
2022/12/16 03:37:45;;;;;;;18.60;12.35;;;16.20;69.50;;;18.11;36.81;97771.59;5036634;28;20033;-72
2022/12/16 03:40:12;;;;;;;21.08;13.07;;;16.20;69.60;;;18.06;36.87;97771.03;5023098;28;20036;-72
2022/12/16 03:42:38;;;;;;;14.77;10.60;;;16.20;69.70;;;18.03;36.63;97760.75;5023285;28;20045;-72
2022/12/16 03:45:05;;;;;;;19.10;12.45;;;16.10;69.50;;;18.03;36.85;97758.81;5036773;28;20147;-72
2022/12/16 03:47:31;;;;;;;17.35;11.52;;;16.10;69.50;;;18.03;36.49;97749.78;5002277;28;20044;-72
2022/12/16 03:49:57;;;;;;;18.63;12.00;;;16.20;69.30;;;17.96;36.91;97745.69;5069214;28;20048;-72
2022/12/16 03:52:23;;;;;;;18.35;11.55;;;16.10;69.60;;;18.03;36.48;97744.28;5053552;28;20086;-72
2022/12/16 03:54:49;;;;;;;19.48;12.52;;;16.10;69.40;;;18.03;36.42;97738.81;5036639;28;20040;-72
2022/12/16 03:57:15;;;;;;;19.35;13.48;;;16.10;68.70;;;18.00;36.14;97726.59;5036215;28;20059;-72
2022/12/16 03:59:42;;;;;;;19.02;12.55;;;16.10;68.50;;;18.04;36.07;97718.44;5053615;28;20049;-73
2022/12/16 04:02:08;;;;;;;19.35;12.05;;;16.10;68.50;;;17.99;36.35;97717.56;5035678;28;20119;-72
2022/12/16 04:04:34;;;;;;;17.13;12.13;;;16.00;68.80;;;18.04;36.39;97711.03;5051737;28;20136;-72
2022/12/16 04:09:45;;;;;;;16.60;12.23;;;16.10;69.30;;;17.97;36.63;97700.66;5036627;28;20730;-72
2022/12/16 04:26:08;;;;;;;18.42;10.93;;;16.10;69.00;;;17.95;36.43;97674.72;5046043;28;20396;-72
2022/12/16 04:28:34;;;;;;;18.20;13.05;;;16.10;68.50;;;17.95;36.18;97680.97;5034407;28;20043;-72
2022/12/16 04:31:01;;;;;;;14.18;10.43;;;16.10;68.50;;;17.99;36.04;97681.09;5054685;28;20545;-72
